Portada
METAR-TAF:

METAR-TAF

Aeropuertos :

Kalgoorlie, Australia

latitud: 30-47S, longitud: 121-27E, altitud: 367 m

Observación

El informe se hizo hace 24 minutos, a las 14:00 UTC
Viento calma
Temperatura 7°C
Humedad 87%
Presión 1028 hPa
Visibilidad 10 km o más

METAR: YPKG 201400Z AUTO 00000KT 9999 // NCD 07/05 Q1028 RF00.0/000.0

Hora: 22:24 (14:24 UTC)

Pronóstico

El informe se hizo hace 3 horas y 15 minutos, a las 11:09 UTC
Pronóstico válido del 20 a las 12 UTC al 21 a las 12 UTC
Viento 8 kt del este-noreste
Visibilidad 10 km o más
Nubes dispersas a una altura de 4000 ft
A partir de las 21 a las 0000 UTC
Viento 12 kt del norte-noreste
Visibilidad 10 km o más
Nubes dispersas a una altura de 4000 ft

TAF: YPKG 201109Z 2012/2112 07008KT 9999 SCT040 FM210000 02012KT 9999 SCT040

Observaciones y pronósticos meteorológicos de más de 4000 aeropuertos (mensajes METAR y TAF).

Los puntos amarillos y rojos representan las estaciones disponibles.

Ponga el ratón en el punto deseado para ver el nombre de la estación.

Haga clic para ver las observaciones y los pronósticos meteorológicos.

Para cambiar el mapa : haga clic en los botones verdes con una cruz de color negro para hacer un zoom, en el botón verde con un guión para alejar o en las flechas verdes para mapas adyacentes.


METAR-TAF: